S-y Atmosphere — ZCGY6 — position and weather

sailwx.info

Track history (hours):
 
Tides and Currents Weather Stations Pressure Air Temp Water Temp Dewpoint Dewpoint Depression Visibility Wind Speed Wind Dir Waves Ship Positions

S-y Atmosphere

Last reported at 2014-Jul-12 08:05 UTC. Time now 2014-Jul-24 23:00 UTC.
Position N 38°01' E 015°37'.
Warning: this ship's position is 12 days out of date.

Length 53 m; draft 4 m.

Type: Sailing vessel. MMSI: 319726000.

Date/timePositionNaut miles runAvg speedWind from/ knotsBaromVisibWave heightAir tempDewpointWater temp
2014-Jul-12 08:05N 38°01' E 015°37'1710.5
2014-Jul-12 06:26N 38°18' E 015°38'1112.4
2014-Jul-12 05:33N 38°21' E 015°24'  
2014-Jul-09 08:31N 40°17' E 014°34'10 9.1
2014-Jul-09 07:24N 40°27' E 014°32'10 8.8
2014-Jul-09 06:12N 40°37' E 014°29'0 0.0
2014-Jul-09 05:29N 40°37' E 014°29'0 0.0
2014-Jul-09 04:21N 40°37' E 014°29'0 0.0
2014-Jul-09 03:23N 40°37' E 014°29'0 0.0
2014-Jul-09 02:33N 40°37' E 014°29'0 0.0
2014-Jul-09 01:19N 40°37' E 014°29'0 0.0
2014-Jul-09 00:31N 40°37' E 014°29'0 0.0
2014-Jul-08 23:24N 40°37' E 014°29'0 0.0
2014-Jul-08 22:26N 40°37' E 014°29'0 0.0
2014-Jul-08 21:33N 40°37' E 014°29'0 0.0
2014-Jul-08 18:04N 40°37' E 014°29'10 2.9
2014-Jul-08 14:29N 40°34' E 014°16'1 1.0
2014-Jul-08 13:05N 40°32' E 014°15'5 9.3
2014-Jul-08 12:32N 40°37' E 014°16'1110.5
2014-Jul-08 11:32N 40°48' E 014°15'6 1.6
2014-Jul-08 07:29N 40°45' E 014°07'12 4.1
2014-Jul-08 04:26N 40°43' E 013°51'0 0.0
2014-Jul-08 03:29N 40°43' E 013°51'0 0.0
2014-Jul-08 02:32N 40°43' E 013°51'0 0.0
2014-Jul-08 01:20N 40°43' E 013°51'0 0.1
2014-Jul-08 00:32N 40°43' E 013°51'0 0.0
2014-Jul-07 23:32N 40°43' E 013°51'0 0.0
2014-Jul-07 22:32N 40°43' E 013°51'0 0.0
2014-Jul-07 21:32N 40°43' E 013°51'0 0.0
2014-Jul-07 20:29N 40°43' E 013°51'0 0.0
2014-Jul-07 15:23N 40°43' E 013°51'911.4
2014-Jul-07 14:33N 40°44' E 013°38'1212.5
2014-Jul-07 13:33N 40°47' E 013°23'1312.7
2014-Jul-07 12:33N 40°51' E 013°07'7 6.9
2014-Jul-07 11:31N 40°54' E 012°58'0 0.0
2014-Jul-07 10:31N 40°54' E 012°58'0 0.0
2014-Jul-07 09:10N 40°54' E 012°58'1 1.4
2014-Jul-07 08:21N 40°54' E 012°57'8 0.6
2014-Jul-06 19:31N 40°60' E 012°50'1412.1
2014-Jul-06 18:22N 41°11' E 012°38'1212.1
2014-Jul-06 17:22N 41°20' E 012°29'107 5.0
2014-Jul-05 20:04N 42°24' E 010°34'18 9.6
2014-Jul-05 18:12N 42°36' E 010°16'6 9.7
2014-Jul-05 17:33N 42°40' E 010°09'20 9.9
2014-Jul-05 15:33N 42°53' E 009°48'116 2.3
2014-Jul-03 12:33N 43°44' E 007°26'0 0.2
2014-Jul-03 11:17N 43°44' E 007°25'0 0.0
2014-Jul-02 18:08N 43°44' E 007°25'0 0.0
2014-Jul-02 17:08N 43°44' E 007°25'0 0.0
2014-Jul-02 14:32N 43°44' E 007°25'0 0.0
2014-Jul-02 13:32N 43°44' E 007°25'  
Track history (hours):
 
Tides and Currents Weather Stations Pressure Air Temp Water Temp Dewpoint Dewpoint Depression Visibility Wind Speed Wind Dir Waves Ship Positions

S-y Atmosphere

Last reported at 2014-Jul-12 08:05 UTC. Time now 2014-Jul-24 23:00 UTC.
Position N 38°01' E 015°37'.
Warning: this ship's position is 12 days out of date.

Length 53 m; draft 4 m.

Type: Sailing vessel. MMSI: 319726000.

Date/timePositionNaut miles runAvg speedWind from/ knotsBaromVisibWave heightAir tempDewpointWater temp
2014-Jul-12 08:05N 38°01' E 015°37'1710.5
2014-Jul-12 06:26N 38°18' E 015°38'1112.4
2014-Jul-12 05:33N 38°21' E 015°24'  
2014-Jul-09 08:31N 40°17' E 014°34'10 9.1
2014-Jul-09 07:24N 40°27' E 014°32'10 8.8
2014-Jul-09 06:12N 40°37' E 014°29'0 0.0
2014-Jul-09 05:29N 40°37' E 014°29'0 0.0
2014-Jul-09 04:21N 40°37' E 014°29'0 0.0
2014-Jul-09 03:23N 40°37' E 014°29'0 0.0
2014-Jul-09 02:33N 40°37' E 014°29'0 0.0
2014-Jul-09 01:19N 40°37' E 014°29'0 0.0
2014-Jul-09 00:31N 40°37' E 014°29'0 0.0
2014-Jul-08 23:24N 40°37' E 014°29'0 0.0
2014-Jul-08 22:26N 40°37' E 014°29'0 0.0
2014-Jul-08 21:33N 40°37' E 014°29'0 0.0
2014-Jul-08 18:04N 40°37' E 014°29'10 2.9
2014-Jul-08 14:29N 40°34' E 014°16'1 1.0
2014-Jul-08 13:05N 40°32' E 014°15'5 9.3
2014-Jul-08 12:32N 40°37' E 014°16'1110.5
2014-Jul-08 11:32N 40°48' E 014°15'6 1.6
2014-Jul-08 07:29N 40°45' E 014°07'12 4.1
2014-Jul-08 04:26N 40°43' E 013°51'0 0.0
2014-Jul-08 03:29N 40°43' E 013°51'0 0.0
2014-Jul-08 02:32N 40°43' E 013°51'0 0.0
2014-Jul-08 01:20N 40°43' E 013°51'0 0.1
2014-Jul-08 00:32N 40°43' E 013°51'0 0.0
2014-Jul-07 23:32N 40°43' E 013°51'0 0.0
2014-Jul-07 22:32N 40°43' E 013°51'0 0.0
2014-Jul-07 21:32N 40°43' E 013°51'0 0.0
2014-Jul-07 20:29N 40°43' E 013°51'0 0.0
2014-Jul-07 15:23N 40°43' E 013°51'911.4
2014-Jul-07 14:33N 40°44' E 013°38'1212.5
2014-Jul-07 13:33N 40°47' E 013°23'1312.7
2014-Jul-07 12:33N 40°51' E 013°07'7 6.9
2014-Jul-07 11:31N 40°54' E 012°58'0 0.0
2014-Jul-07 10:31N 40°54' E 012°58'0 0.0
2014-Jul-07 09:10N 40°54' E 012°58'1 1.4
2014-Jul-07 08:21N 40°54' E 012°57'8 0.6
2014-Jul-06 19:31N 40°60' E 012°50'1412.1
2014-Jul-06 18:22N 41°11' E 012°38'1212.1
2014-Jul-06 17:22N 41°20' E 012°29'107 5.0
2014-Jul-05 20:04N 42°24' E 010°34'18 9.6
2014-Jul-05 18:12N 42°36' E 010°16'6 9.7
2014-Jul-05 17:33N 42°40' E 010°09'20 9.9
2014-Jul-05 15:33N 42°53' E 009°48'116 2.3
2014-Jul-03 12:33N 43°44' E 007°26'0 0.2
2014-Jul-03 11:17N 43°44' E 007°25'0 0.0
2014-Jul-02 18:08N 43°44' E 007°25'0 0.0
2014-Jul-02 17:08N 43°44' E 007°25'0 0.0
2014-Jul-02 14:32N 43°44' E 007°25'0 0.0
2014-Jul-02 13:32N 43°44' E 007°25'  

Dump ship's entire track history